Time;durP1;ratioP1;P1;durP2;ratioP2;P2;SDS_P1;SDS_P2;PMS_P1;PMS_P2;Temp;Humidity;BMP_temperature;BMP_pressure;BME280_temperature;BME280_humidity;BME280_pressure;Samples;Min_cycle;Max_cycle;Signal;HPM_P1;HPM_P2
2023/09/11 00:00:57;;;;;;;23.75;7.90;;;;;;;;;;4982309;28;20925;-82
2023/09/11 00:03:24;;;;;;;23.27;7.50;;;;;;;;;;4990437;28;20414;-82
2023/09/11 00:05:50;;;;;;;21.65;7.57;;;;;;;;;;5013370;28;20479;-82
2023/09/11 00:08:30;;;;;;;23.38;8.18;;;;;;;;;;4985855;28;20449;-81
2023/09/11 00:10:57;;;;;;;21.63;8.23;;;;;;;;;;4989871;28;20427;-82
2023/09/11 00:13:25;;;;;;;23.13;7.73;;;;;;;;;;4984026;28;20939;-82
2023/09/11 00:15:52;;;;;;;25.00;7.73;;;;;;;;;;4985733;28;20830;-81
2023/09/11 00:18:18;;;;;;;25.60;8.07;;;;;;;;;;4979253;28;20404;-81
2023/09/11 00:20:45;;;;;;;22.20;6.95;;;;;;;;;;4987445;28;20416;-82
2023/09/11 00:23:12;;;;;;;25.57;8.00;;;;;;;;;;4989498;28;20477;-81
2023/09/11 00:25:39;;;;;;;20.05;6.95;;;;;;;;;;4985529;28;20805;-82
2023/09/11 00:28:05;;;;;;;22.70;7.63;;;;;;;;;;4983328;28;20800;-82
2023/09/11 00:30:34;;;;;;;24.00;8.20;;;;;;;;;;4983503;28;20416;-82
2023/09/11 00:33:01;;;;;;;22.73;7.30;;;;;;;;;;4978969;28;20420;-81
2023/09/11 00:35:28;;;;;;;26.13;7.88;;;;;;;;;;4987273;28;20931;-82
2023/09/11 00:37:55;;;;;;;23.55;8.05;;;;;;;;;;5000828;28;20925;-82
2023/09/11 00:40:21;;;;;;;23.00;7.47;;;;;;;;;;4982959;28;20955;-81
2023/09/11 00:42:48;;;;;;;23.23;7.60;;;;;;;;;;4981458;28;20414;-81
2023/09/11 00:45:15;;;;;;;22.95;7.43;;;;;;;;;;5000074;28;20414;-81
2023/09/11 00:47:44;;;;;;;22.13;7.17;;;;;;;;;;4987700;28;20433;-80
2023/09/11 00:50:11;;;;;;;23.80;7.50;;;;;;;;;;4984195;28;20422;-81
2023/09/11 00:52:39;;;;;;;21.67;7.82;;;;;;;;;;4987930;28;20758;-82
2023/09/11 00:55:07;;;;;;;23.05;7.68;;;;;;;;;;4981512;28;20442;-82
2023/09/11 00:57:34;;;;;;;23.27;7.28;;;;;;;;;;4979245;28;20416;-82
2023/09/11 01:00:00;;;;;;;21.90;7.32;;;;;;;;;;4981756;28;20446;-82
2023/09/11 01:02:27;;;;;;;20.80;7.38;;;;;;;;;;4990411;28;20425;-81
2023/09/11 01:04:55;;;;;;;22.52;7.25;;;;;;;;;;4970083;28;20522;-82
2023/09/11 01:07:22;;;;;;;21.92;7.95;;;;;;;;;;4976450;28;20426;-82
2023/09/11 01:09:49;;;;;;;24.70;8.23;;;;;;;;;;4986639;28;20466;-82
2023/09/11 01:12:15;;;;;;;23.90;8.05;;;;;;;;;;4985461;28;20745;-82
2023/09/11 01:14:42;;;;;;;21.42;7.55;;;;;;;;;;4990815;28;20809;-82
2023/09/11 01:17:12;;;;;;;23.10;7.50;;;;;;;;;;4987067;28;20936;-81
2023/09/11 01:19:44;;;;;;;23.60;6.65;;;;;;;;;;4984152;28;20794;-81
2023/09/11 01:22:20;;;;;;;21.25;8.05;;;;;;;;;;4984651;28;20418;-82
2023/09/11 01:24:54;;;;;;;23.20;7.93;;;;;;;;;;5015430;28;20819;-82
2023/09/11 01:27:29;;;;;;;26.60;8.25;;;;;;;;;;4990566;28;20470;-82
2023/09/11 01:29:58;;;;;;;24.30;8.20;;;;;;;;;;4982824;28;20424;-81
2023/09/11 01:32:25;;;;;;;22.27;7.93;;;;;;;;;;4985228;28;20419;-81
2023/09/11 01:34:52;;;;;;;24.00;8.60;;;;;;;;;;4985545;28;20757;-81
2023/09/11 01:37:19;;;;;;;23.60;8.27;;;;;;;;;;4983825;28;20849;-81
2023/09/11 01:39:46;;;;;;;23.40;7.55;;;;;;;;;;4982775;28;20771;-82
2023/09/11 01:42:15;;;;;;;22.80;8.55;;;;;;;;;;4971070;28;20501;-82
2023/09/11 01:44:43;;;;;;;24.48;8.15;;;;;;;;;;4993498;28;20418;-81
2023/09/11 01:47:12;;;;;;;21.92;7.53;;;;;;;;;;4969070;28;20416;-81
2023/09/11 01:49:39;;;;;;;24.77;8.07;;;;;;;;;;4988617;28;20425;-81
2023/09/11 01:52:06;;;;;;;20.70;7.78;;;;;;;;;;4981492;28;20414;-81
2023/09/11 01:54:34;;;;;;;22.17;7.13;;;;;;;;;;4982067;28;20415;-81
2023/09/11 01:57:00;;;;;;;22.65;8.40;;;;;;;;;;4971927;28;20417;-82
2023/09/11 01:59:27;;;;;;;24.58;8.25;;;;;;;;;;5013000;28;20450;-81
2023/09/11 02:01:54;;;;;;;21.85;7.88;;;;;;;;;;4986658;28;20419;-81
2023/09/11 02:04:22;;;;;;;23.90;8.90;;;;;;;;;;4977534;28;20414;-82
2023/09/11 02:06:50;;;;;;;27.63;8.23;;;;;;;;;;4992882;28;20434;-81
2023/09/11 02:09:16;;;;;;;25.30;9.48;;;;;;;;;;4984383;28;20420;-81
2023/09/11 02:11:43;;;;;;;24.37;8.40;;;;;;;;;;4986124;28;20553;-81
2023/09/11 02:14:10;;;;;;;25.90;9.02;;;;;;;;;;4981610;28;20735;-81
2023/09/11 02:16:36;;;;;;;24.70;9.73;;;;;;;;;;4992318;28;20415;-81
2023/09/11 02:19:03;;;;;;;24.83;8.35;;;;;;;;;;5000292;28;20422;-82
2023/09/11 02:21:31;;;;;;;25.55;8.68;;;;;;;;;;4990540;28;20517;-81
2023/09/11 02:23:58;;;;;;;24.00;7.80;;;;;;;;;;4980320;28;20414;-81
2023/09/11 02:26:25;;;;;;;24.20;8.30;;;;;;;;;;4982203;28;20475;-82
2023/09/11 02:28:52;;;;;;;25.80;8.30;;;;;;;;;;4981615;28;20872;-82
2023/09/11 02:31:19;;;;;;;26.42;8.15;;;;;;;;;;4989907;28;20422;-82
2023/09/11 02:33:45;;;;;;;26.85;8.30;;;;;;;;;;4990716;28;20412;-82
2023/09/11 02:36:12;;;;;;;22.48;7.97;;;;;;;;;;4982559;28;20483;-82
2023/09/11 02:38:40;;;;;;;23.58;8.82;;;;;;;;;;4988301;28;20443;-82
2023/09/11 02:41:07;;;;;;;23.90;9.60;;;;;;;;;;4984349;28;20885;-82
2023/09/11 02:43:36;;;;;;;26.70;8.50;;;;;;;;;;4965877;28;20422;-81
2023/09/11 02:46:03;;;;;;;24.95;9.35;;;;;;;;;;4986489;28;20434;-81
2023/09/11 02:48:31;;;;;;;24.77;7.95;;;;;;;;;;5002142;28;20783;-81
2023/09/11 02:50:59;;;;;;;25.33;8.25;;;;;;;;;;4988341;28;20416;-82
2023/09/11 02:53:26;;;;;;;23.00;7.68;;;;;;;;;;4987279;28;20420;-81
2023/09/11 02:55:54;;;;;;;25.15;8.10;;;;;;;;;;4989615;28;20407;-82
2023/09/11 02:58:20;;;;;;;25.98;8.77;;;;;;;;;;4989572;28;20424;-82
2023/09/11 03:00:47;;;;;;;23.77;8.53;;;;;;;;;;4991831;28;20430;-82
2023/09/11 03:03:14;;;;;;;22.10;8.20;;;;;;;;;;4987878;28;20785;-82
2023/09/11 03:05:41;;;;;;;26.50;8.82;;;;;;;;;;4979374;28;20419;-82
2023/09/11 03:08:07;;;;;;;21.65;7.57;;;;;;;;;;4991897;28;20433;-82
2023/09/11 03:10:34;;;;;;;23.77;8.00;;;;;;;;;;4990017;28;20423;-82
2023/09/11 03:13:03;;;;;;;25.67;7.95;;;;;;;;;;4983762;28;20472;-82
2023/09/11 03:15:31;;;;;;;24.75;7.93;;;;;;;;;;5005635;28;20490;-82
2023/09/11 03:17:58;;;;;;;22.17;7.63;;;;;;;;;;4982656;28;20416;-83
2023/09/11 03:20:25;;;;;;;22.00;7.80;;;;;;;;;;5006123;28;20417;-82
2023/09/11 03:22:53;;;;;;;23.13;7.50;;;;;;;;;;4982057;28;20414;-82
2023/09/11 03:25:21;;;;;;;25.00;6.88;;;;;;;;;;4981179;28;20542;-82
2023/09/11 03:27:48;;;;;;;23.00;7.55;;;;;;;;;;4983042;28;21014;-82
2023/09/11 03:30:17;;;;;;;22.60;7.93;;;;;;;;;;5009140;28;20435;-83
2023/09/11 03:32:44;;;;;;;27.38;8.15;;;;;;;;;;4988141;28;20417;-82
2023/09/11 03:35:12;;;;;;;25.20;7.45;;;;;;;;;;4986539;28;20821;-83
2023/09/11 03:37:38;;;;;;;21.63;6.93;;;;;;;;;;4988501;28;20448;-81
2023/09/11 03:40:07;;;;;;;23.80;7.10;;;;;;;;;;4988779;28;20969;-82
2023/09/11 03:42:35;;;;;;;22.63;7.50;;;;;;;;;;4991079;28;20410;-82
2023/09/11 03:45:02;;;;;;;23.90;6.70;;;;;;;;;;5000897;28;21012;-82
2023/09/11 03:47:31;;;;;;;22.48;7.07;;;;;;;;;;4981602;28;20412;-82
2023/09/11 03:49:58;;;;;;;24.20;7.03;;;;;;;;;;4988711;28;20420;-81
2023/09/11 03:52:25;;;;;;;23.25;7.60;;;;;;;;;;4987317;28;20786;-82
2023/09/11 03:54:52;;;;;;;21.52;6.75;;;;;;;;;;4984902;28;20416;-81
2023/09/11 03:57:19;;;;;;;20.45;7.07;;;;;;;;;;4982161;28;20412;-82
2023/09/11 03:59:46;;;;;;;21.98;7.45;;;;;;;;;;4982583;28;20408;-82
2023/09/11 04:02:12;;;;;;;25.10;7.70;;;;;;;;;;5012987;28;20419;-82
2023/09/11 04:04:40;;;;;;;22.50;7.80;;;;;;;;;;4989838;28;20442;-81
2023/09/11 04:07:07;;;;;;;21.58;6.82;;;;;;;;;;4989620;28;20817;-81
2023/09/11 04:09:34;;;;;;;22.88;6.80;;;;;;;;;;4983941;28;20454;-81
2023/09/11 04:12:02;;;;;;;24.63;6.65;;;;;;;;;;4985289;28;20416;-82
2023/09/11 04:14:29;;;;;;;24.77;7.43;;;;;;;;;;4982166;28;20477;-82
2023/09/11 04:16:56;;;;;;;26.52;6.90;;;;;;;;;;4975896;28;20421;-81
2023/09/11 04:19:23;;;;;;;22.35;6.15;;;;;;;;;;4985345;28;20411;-81
2023/09/11 04:21:51;;;;;;;24.70;7.20;;;;;;;;;;4983359;28;20981;-83
2023/09/11 04:24:18;;;;;;;27.10;8.00;;;;;;;;;;4987883;28;20420;-82
2023/09/11 04:26:45;;;;;;;24.20;7.20;;;;;;;;;;4988182;28;20416;-82
2023/09/11 04:29:13;;;;;;;22.98;6.20;;;;;;;;;;4971377;28;20440;-83
2023/09/11 04:31:41;;;;;;;24.27;6.68;;;;;;;;;;4987745;28;20469;-83
2023/09/11 04:34:07;;;;;;;23.35;7.10;;;;;;;;;;4980417;28;20411;-82
2023/09/11 04:36:35;;;;;;;23.33;6.88;;;;;;;;;;4980821;28;20456;-82
2023/09/11 04:39:04;;;;;;;26.73;8.35;;;;;;;;;;4980193;28;21215;-83
2023/09/11 04:41:31;;;;;;;20.70;7.03;;;;;;;;;;4972301;28;20481;-82
2023/09/11 04:43:58;;;;;;;20.50;6.60;;;;;;;;;;4966494;28;20787;-83
2023/09/11 04:46:25;;;;;;;24.45;6.60;;;;;;;;;;4987578;28;20785;-83
2023/09/11 04:48:52;;;;;;;21.85;6.70;;;;;;;;;;4970886;28;20424;-82
2023/09/11 04:51:19;;;;;;;26.67;6.88;;;;;;;;;;4985169;28;20410;-83
2023/09/11 04:53:46;;;;;;;25.80;7.30;;;;;;;;;;4982116;28;20404;-82
2023/09/11 04:56:14;;;;;;;21.20;6.40;;;;;;;;;;4988688;28;20550;-81
2023/09/11 04:58:41;;;;;;;22.45;6.10;;;;;;;;;;4965672;28;20416;-82
2023/09/11 05:01:09;;;;;;;25.48;8.10;;;;;;;;;;4985257;28;20497;-82
2023/09/11 05:03:38;;;;;;;24.15;6.43;;;;;;;;;;4978180;28;20407;-83
2023/09/11 05:06:05;;;;;;;21.63;6.50;;;;;;;;;;4982109;28;20428;-82
2023/09/11 05:08:32;;;;;;;21.98;5.80;;;;;;;;;;4987933;28;20426;-81
2023/09/11 05:11:20;;;;;;;25.77;6.35;;;;;;;;;;5013140;28;20479;-82
2023/09/11 05:13:47;;;;;;;24.35;6.38;;;;;;;;;;5011575;28;20478;-81
2023/09/11 05:16:14;;;;;;;21.98;7.07;;;;;;;;;;5016772;28;20492;-83
2023/09/11 05:18:41;;;;;;;20.20;5.90;;;;;;;;;;4984836;28;20410;-82
2023/09/11 05:21:08;;;;;;;22.02;7.22;;;;;;;;;;4979112;28;20505;-81
2023/09/11 05:23:35;;;;;;;21.20;6.63;;;;;;;;;;4972585;28;20427;-82
2023/09/11 05:26:03;;;;;;;19.33;5.63;;;;;;;;;;4978769;28;20790;-81
2023/09/11 05:28:31;;;;;;;22.23;6.00;;;;;;;;;;4982140;28;20588;-81
2023/09/11 05:30:57;;;;;;;22.43;6.20;;;;;;;;;;5001008;28;20436;-82
2023/09/11 05:33:24;;;;;;;21.63;6.30;;;;;;;;;;4964501;28;20424;-82
2023/09/11 05:35:51;;;;;;;23.95;6.47;;;;;;;;;;4976879;28;20776;-82
2023/09/11 05:38:18;;;;;;;21.90;5.80;;;;;;;;;;4977052;28;20416;-81
2023/09/11 05:40:45;;;;;;;22.50;6.22;;;;;;;;;;4996331;28;20522;-83
2023/09/11 05:43:11;;;;;;;20.23;5.80;;;;;;;;;;4980681;28;20411;-82
2023/09/11 05:45:40;;;;;;;27.17;7.20;;;;;;;;;;5003572;28;20924;-82
2023/09/11 05:48:06;;;;;;;20.93;6.00;;;;;;;;;;4981249;28;20414;-82
2023/09/11 05:50:34;;;;;;;21.27;5.75;;;;;;;;;;5015889;28;20444;-83
2023/09/11 05:53:01;;;;;;;23.83;5.55;;;;;;;;;;4981370;28;20893;-82
2023/09/11 05:55:27;;;;;;;24.40;6.77;;;;;;;;;;4985363;28;20940;-82
2023/09/11 05:57:54;;;;;;;26.92;6.60;;;;;;;;;;4987891;28;21172;-82
2023/09/11 06:00:21;;;;;;;22.35;5.70;;;;;;;;;;4982631;28;20417;-82
2023/09/11 06:02:50;;;;;;;24.08;6.82;;;;;;;;;;4983074;28;20926;-82
2023/09/11 06:05:17;;;;;;;21.02;6.18;;;;;;;;;;4987971;28;20462;-83
2023/09/11 06:07:43;;;;;;;23.00;5.87;;;;;;;;;;4989619;28;20411;-82
2023/09/11 06:10:11;;;;;;;23.05;7.07;;;;;;;;;;4981611;28;20435;-81
2023/09/11 06:12:38;;;;;;;23.95;6.22;;;;;;;;;;4984158;28;20415;-82
2023/09/11 06:15:05;;;;;;;22.77;6.55;;;;;;;;;;4991028;28;20489;-81
2023/09/11 06:17:32;;;;;;;21.13;5.60;;;;;;;;;;4985266;28;20482;-81
2023/09/11 06:20:15;;;;;;;22.50;5.90;;;;;;;;;;4986066;28;20497;-82
2023/09/11 06:22:43;;;;;;;22.47;5.93;;;;;;;;;;4987242;28;20427;-82
2023/09/11 06:25:10;;;;;;;22.13;5.82;;;;;;;;;;4983777;28;20977;-82
2023/09/11 06:27:37;;;;;;;25.27;6.30;;;;;;;;;;4989944;28;20422;-82
2023/09/11 06:30:07;;;;;;;21.08;6.05;;;;;;;;;;4981290;28;20437;-82
2023/09/11 06:32:34;;;;;;;23.30;6.20;;;;;;;;;;4982346;28;20415;-80
2023/09/11 06:35:01;;;;;;;21.75;5.53;;;;;;;;;;4982718;28;20422;-82
2023/09/11 06:37:29;;;;;;;23.15;6.15;;;;;;;;;;4983130;28;20414;-81
2023/09/11 06:39:56;;;;;;;29.38;5.60;;;;;;;;;;4989408;28;20456;-81
2023/09/11 06:42:24;;;;;;;22.77;5.97;;;;;;;;;;4984209;28;20424;-80
2023/09/11 06:44:52;;;;;;;22.75;6.70;;;;;;;;;;4991317;28;20501;-82
2023/09/11 06:47:19;;;;;;;22.27;5.93;;;;;;;;;;4980244;28;20407;-83
2023/09/11 06:49:46;;;;;;;24.05;6.53;;;;;;;;;;4984071;28;21098;-83
2023/09/11 06:52:12;;;;;;;23.60;5.82;;;;;;;;;;4989248;28;20430;-83
2023/09/11 06:54:40;;;;;;;22.25;5.50;;;;;;;;;;4984612;28;20448;-82
2023/09/11 06:57:07;;;;;;;21.90;5.40;;;;;;;;;;4983886;28;20787;-81
2023/09/11 06:59:34;;;;;;;22.85;5.28;;;;;;;;;;4980375;28;21056;-83
2023/09/11 07:02:01;;;;;;;23.45;6.00;;;;;;;;;;4971346;28;20465;-83
2023/09/11 07:04:30;;;;;;;21.13;5.50;;;;;;;;;;4983576;28;20607;-80
2023/09/11 07:06:59;;;;;;;21.88;5.13;;;;;;;;;;4983619;28;20415;-82
2023/09/11 07:09:26;;;;;;;19.15;5.18;;;;;;;;;;5014796;28;20923;-82
2023/09/11 07:11:54;;;;;;;20.38;5.10;;;;;;;;;;4981571;28;20415;-81
2023/09/11 07:14:22;;;;;;;22.08;5.60;;;;;;;;;;4980458;28;20417;-82
2023/09/11 07:16:49;;;;;;;23.90;6.05;;;;;;;;;;4981764;28;20412;-81
2023/09/11 07:19:16;;;;;;;23.15;6.20;;;;;;;;;;4981409;28;20766;-82
2023/09/11 07:21:44;;;;;;;27.73;7.10;;;;;;;;;;4988917;28;20424;-81
2023/09/11 07:24:11;;;;;;;23.83;5.32;;;;;;;;;;4987390;28;20508;-82
2023/09/11 07:26:39;;;;;;;19.50;4.78;;;;;;;;;;4980600;28;20837;-82
2023/09/11 07:29:07;;;;;;;24.42;5.03;;;;;;;;;;4977937;28;20929;-82
2023/09/11 07:31:35;;;;;;;20.80;5.50;;;;;;;;;;4982685;28;20414;-83
2023/09/11 07:34:02;;;;;;;24.75;5.95;;;;;;;;;;4972208;28;20475;-83
2023/09/11 07:36:29;;;;;;;23.60;4.97;;;;;;;;;;4987199;28;20520;-82
2023/09/11 07:38:56;;;;;;;19.17;4.80;;;;;;;;;;4986385;28;20410;-82
2023/09/11 07:41:23;;;;;;;21.60;5.10;;;;;;;;;;4989886;28;20427;-81
2023/09/11 07:43:50;;;;;;;21.92;5.30;;;;;;;;;;5015308;28;20777;-83
2023/09/11 07:46:19;;;;;;;20.13;4.80;;;;;;;;;;4988219;28;20415;-82
2023/09/11 07:48:47;;;;;;;25.25;5.00;;;;;;;;;;4988056;28;20424;-82
2023/09/11 07:51:13;;;;;;;23.02;5.60;;;;;;;;;;4980631;28;20416;-83
2023/09/11 07:53:40;;;;;;;20.65;4.53;;;;;;;;;;4988825;28;20421;-82
2023/09/11 07:56:07;;;;;;;20.70;4.47;;;;;;;;;;4980089;28;20414;-83
2023/09/11 07:58:35;;;;;;;17.35;4.60;;;;;;;;;;4978242;28;20496;-84
2023/09/11 08:01:02;;;;;;;22.42;4.95;;;;;;;;;;4978875;28;20428;-83
2023/09/11 08:03:31;;;;;;;22.52;4.90;;;;;;;;;;4989282;28;20447;-81
2023/09/11 08:05:59;;;;;;;19.42;5.32;;;;;;;;;;4988980;28;20416;-83
2023/09/11 08:08:26;;;;;;;22.08;4.88;;;;;;;;;;4985792;28;20414;-83
2023/09/11 08:10:54;;;;;;;20.70;4.60;;;;;;;;;;4988295;28;20427;-84
2023/09/11 08:13:23;;;;;;;24.60;5.00;;;;;;;;;;4984622;28;20432;-83
2023/09/11 08:15:50;;;;;;;21.30;4.80;;;;;;;;;;4988687;28;20441;-81
2023/09/11 08:18:17;;;;;;;21.67;4.70;;;;;;;;;;4980361;28;20415;-82
2023/09/11 08:20:46;;;;;;;26.27;4.53;;;;;;;;;;4979993;28;20439;-82
2023/09/11 08:23:13;;;;;;;21.55;5.40;;;;;;;;;;4962178;28;20420;-81
2023/09/11 08:25:40;;;;;;;24.50;4.70;;;;;;;;;;4980212;28;20416;-83
2023/09/11 08:28:07;;;;;;;21.38;4.43;;;;;;;;;;4981824;28;20966;-83
2023/09/11 08:30:34;;;;;;;24.23;4.68;;;;;;;;;;4982731;28;20459;-82
2023/09/11 08:33:03;;;;;;;18.00;4.20;;;;;;;;;;4981983;28;20416;-79
2023/09/11 08:35:31;;;;;;;21.92;4.25;;;;;;;;;;4987446;28;20850;-80
2023/09/11 08:37:59;;;;;;;18.95;4.25;;;;;;;;;;4981866;28;20927;-83
2023/09/11 08:40:30;;;;;;;23.20;4.60;;;;;;;;;;4977475;28;20404;-84
2023/09/11 08:42:57;;;;;;;24.40;4.30;;;;;;;;;;5013298;28;20493;-83
2023/09/11 08:45:25;;;;;;;21.60;5.30;;;;;;;;;;4981130;28;20440;-80
2023/09/11 08:47:54;;;;;;;22.02;4.60;;;;;;;;;;4979346;28;20752;-81
2023/09/11 08:50:27;;;;;;;18.15;4.20;;;;;;;;;;4980568;28;20434;-84
2023/09/11 08:52:57;;;;;;;19.17;4.32;;;;;;;;;;4980017;28;20416;-84
2023/09/11 08:55:27;;;;;;;21.45;4.70;;;;;;;;;;4984668;28;20416;-83
2023/09/11 08:57:56;;;;;;;27.10;5.00;;;;;;;;;;4979313;28;20418;-83
2023/09/11 09:00:24;;;;;;;19.65;4.20;;;;;;;;;;4988259;28;20412;-82
2023/09/11 09:02:51;;;;;;;19.90;5.00;;;;;;;;;;4996661;28;20432;-84
2023/09/11 09:05:20;;;;;;;22.50;4.97;;;;;;;;;;4979782;28;21187;-85
2023/09/11 09:07:49;;;;;;;18.75;4.15;;;;;;;;;;4982230;28;20440;-85
2023/09/11 09:10:17;;;;;;;18.80;4.00;;;;;;;;;;4976744;28;20817;-85
2023/09/11 09:12:46;;;;;;;20.48;4.22;;;;;;;;;;4974840;28;20404;-82
2023/09/11 09:15:14;;;;;;;23.52;4.57;;;;;;;;;;4985181;28;20498;-85
2023/09/11 09:17:41;;;;;;;23.58;4.32;;;;;;;;;;4981563;28;20438;-86
2023/09/11 09:20:08;;;;;;;22.88;5.65;;;;;;;;;;4981367;28;20779;-86
2023/09/11 09:22:36;;;;;;;19.08;4.28;;;;;;;;;;4980508;28;20479;-84
2023/09/11 09:25:03;;;;;;;21.25;4.50;;;;;;;;;;4984189;28;20431;-85
2023/09/11 09:27:34;;;;;;;18.95;3.78;;;;;;;;;;4985167;28;20403;-84
2023/09/11 09:30:03;;;;;;;20.55;4.45;;;;;;;;;;4983908;28;20506;-84
2023/09/11 09:32:32;;;;;;;20.70;4.20;;;;;;;;;;4990675;28;20415;-84
2023/09/11 09:34:58;;;;;;;19.70;4.30;;;;;;;;;;5014639;28;20884;-83
2023/09/11 09:37:25;;;;;;;19.90;4.15;;;;;;;;;;4988649;28;20492;-85
2023/09/11 09:39:52;;;;;;;21.15;4.13;;;;;;;;;;4991493;28;20401;-84
2023/09/11 09:42:19;;;;;;;20.90;4.78;;;;;;;;;;4984062;28;20414;-85
2023/09/11 09:44:48;;;;;;;22.45;4.10;;;;;;;;;;4992213;28;20417;-86
2023/09/11 09:47:21;;;;;;;22.70;4.88;;;;;;;;;;4982858;28;20412;-86
2023/09/11 09:49:50;;;;;;;23.45;4.70;;;;;;;;;;4992695;28;20941;-86
2023/09/11 09:52:18;;;;;;;19.92;4.20;;;;;;;;;;4985518;28;20418;-86
2023/09/11 09:54:45;;;;;;;21.17;4.60;;;;;;;;;;4977551;28;20419;-86
2023/09/11 09:57:13;;;;;;;21.17;4.40;;;;;;;;;;4983581;28;20420;-86
2023/09/11 09:59:40;;;;;;;19.65;4.68;;;;;;;;;;4991204;28;20432;-84
2023/09/11 10:02:09;;;;;;;19.65;4.30;;;;;;;;;;4986212;28;20414;-84
2023/09/11 10:04:37;;;;;;;20.10;4.57;;;;;;;;;;4983081;28;20418;-86
2023/09/11 10:07:04;;;;;;;24.25;4.50;;;;;;;;;;4984270;28;20752;-84
2023/09/11 10:09:30;;;;;;;18.67;4.10;;;;;;;;;;4973105;28;20418;-85
2023/09/11 10:12:00;;;;;;;22.35;4.28;;;;;;;;;;4985152;28;20412;-84
2023/09/11 10:14:27;;;;;;;19.40;4.00;;;;;;;;;;4980712;28;20440;-83
2023/09/11 10:16:54;;;;;;;18.67;4.38;;;;;;;;;;4984582;28;20418;-81
2023/09/11 10:19:21;;;;;;;20.02;4.40;;;;;;;;;;4998691;28;20446;-83
2023/09/11 10:21:49;;;;;;;17.83;4.10;;;;;;;;;;4991014;28;20428;-85
2023/09/11 10:24:16;;;;;;;19.23;3.88;;;;;;;;;;4975044;28;20433;-85
2023/09/11 10:26:44;;;;;;;21.20;4.75;;;;;;;;;;4983128;28;20415;-82
2023/09/11 10:29:16;;;;;;;18.63;4.75;;;;;;;;;;4983115;28;20478;-83
2023/09/11 10:31:46;;;;;;;18.03;4.17;;;;;;;;;;4982134;28;20458;-84
2023/09/11 10:34:14;;;;;;;18.40;3.83;;;;;;;;;;4985090;28;20978;-84
2023/09/11 10:36:44;;;;;;;20.07;4.17;;;;;;;;;;4989585;28;20421;-85
2023/09/11 10:39:13;;;;;;;20.08;4.00;;;;;;;;;;4981482;28;20494;-82
2023/09/11 10:41:40;;;;;;;19.20;4.22;;;;;;;;;;4982912;28;20494;-79
2023/09/11 10:44:07;;;;;;;18.33;4.20;;;;;;;;;;4980431;28;20408;-84
2023/09/11 10:46:34;;;;;;;18.13;4.40;;;;;;;;;;4991353;28;20866;-84
2023/09/11 10:49:13;;;;;;;20.57;3.90;;;;;;;;;;4984538;28;20416;-84
2023/09/11 10:51:39;;;;;;;18.98;4.68;;;;;;;;;;4982126;28;20441;-83
2023/09/11 10:54:06;;;;;;;18.55;3.72;;;;;;;;;;4986850;28;20509;-82
2023/09/11 10:56:35;;;;;;;19.85;4.40;;;;;;;;;;4989208;28;20449;-82
2023/09/11 10:59:03;;;;;;;21.15;4.90;;;;;;;;;;4984362;28;20418;-85
2023/09/11 11:01:31;;;;;;;19.60;4.50;;;;;;;;;;4990861;28;21107;-83
2023/09/11 11:04:00;;;;;;;19.08;4.63;;;;;;;;;;4979094;28;20502;-85
2023/09/11 11:06:27;;;;;;;19.77;4.32;;;;;;;;;;5014986;28;20791;-85
2023/09/11 11:08:54;;;;;;;18.98;4.78;;;;;;;;;;4982181;28;20452;-85
2023/09/11 11:11:22;;;;;;;18.52;4.20;;;;;;;;;;5012981;28;20521;-85
2023/09/11 11:14:08;;;;;;;21.67;4.50;;;;;;;;;;4982764;28;20412;-86
2023/09/11 11:16:37;;;;;;;19.67;4.07;;;;;;;;;;4994122;28;20408;-85
2023/09/11 11:19:04;;;;;;;19.20;4.88;;;;;;;;;;4983640;28;20406;-86
2023/09/11 11:21:37;;;;;;;19.80;4.20;;;;;;;;;;4982705;28;20809;-85
2023/09/11 11:24:05;;;;;;;21.98;4.68;;;;;;;;;;4994477;28;20431;-86
2023/09/11 11:26:35;;;;;;;20.35;4.60;;;;;;;;;;4990122;28;20460;-86
2023/09/11 11:29:02;;;;;;;17.98;3.90;;;;;;;;;;4983054;28;20421;-83
2023/09/11 11:31:30;;;;;;;21.20;4.85;;;;;;;;;;4990856;28;20422;-84
2023/09/11 11:33:59;;;;;;;20.65;5.10;;;;;;;;;;4984148;28;20952;-80
2023/09/11 11:36:26;;;;;;;20.45;4.90;;;;;;;;;;4986090;28;20427;-83
2023/09/11 11:38:56;;;;;;;20.10;4.32;;;;;;;;;;4990310;28;20494;-83
2023/09/11 11:41:23;;;;;;;19.73;4.68;;;;;;;;;;4999680;28;20471;-83
2023/09/11 11:43:50;;;;;;;21.20;4.90;;;;;;;;;;4977822;28;20431;-84
2023/09/11 11:46:21;;;;;;;20.00;4.40;;;;;;;;;;4984826;28;20418;-85
2023/09/11 11:48:48;;;;;;;18.38;4.22;;;;;;;;;;4988328;28;20418;-84
2023/09/11 11:51:25;;;;;;;18.40;4.50;;;;;;;;;;4989034;28;20955;-83
2023/09/11 11:53:52;;;;;;;19.10;4.80;;;;;;;;;;4988650;28;20416;-83
2023/09/11 11:56:20;;;;;;;17.80;4.40;;;;;;;;;;5011331;28;20418;-85
2023/09/11 11:58:46;;;;;;;19.27;5.35;;;;;;;;;;4980356;28;20441;-83
2023/09/11 12:01:13;;;;;;;19.98;4.65;;;;;;;;;;4984179;28;20431;-85
2023/09/11 12:03:45;;;;;;;20.13;4.60;;;;;;;;;;4982642;28;20505;-80
2023/09/11 12:06:12;;;;;;;23.17;4.60;;;;;;;;;;4979653;28;20421;-84
2023/09/11 12:08:41;;;;;;;19.63;4.80;;;;;;;;;;4983512;28;20415;-86
2023/09/11 12:11:08;;;;;;;18.13;4.70;;;;;;;;;;4979477;28;20460;-83
2023/09/11 12:13:35;;;;;;;20.60;4.40;;;;;;;;;;4981787;28;20417;-84
2023/09/11 12:16:16;;;;;;;18.80;4.50;;;;;;;;;;4979896;28;21370;-85
2023/09/11 12:18:42;;;;;;;20.70;4.65;;;;;;;;;;4981904;28;20455;-84
2023/09/11 12:21:10;;;;;;;20.20;4.27;;;;;;;;;;4981134;28;20412;-84
2023/09/11 12:23:37;;;;;;;19.23;4.20;;;;;;;;;;4987485;28;20443;-85
2023/09/11 12:26:05;;;;;;;18.75;4.47;;;;;;;;;;4979764;28;20427;-85
2023/09/11 12:28:32;;;;;;;21.70;5.20;;;;;;;;;;4984638;28;20823;-82
2023/09/11 12:30:59;;;;;;;17.60;4.32;;;;;;;;;;4982719;28;21008;-82
2023/09/11 12:33:27;;;;;;;20.42;4.80;;;;;;;;;;4978270;28;20743;-83
2023/09/11 12:35:55;;;;;;;20.05;4.68;;;;;;;;;;4974373;28;20475;-81
2023/09/11 12:38:22;;;;;;;18.45;4.00;;;;;;;;;;4979392;28;20469;-83
2023/09/11 12:40:50;;;;;;;22.97;4.37;;;;;;;;;;4989080;28;20512;-82
2023/09/11 12:43:19;;;;;;;22.40;5.60;;;;;;;;;;4980609;28;20465;-81
2023/09/11 12:45:46;;;;;;;19.40;4.45;;;;;;;;;;4976848;28;20423;-83
2023/09/11 12:48:12;;;;;;;24.02;4.75;;;;;;;;;;4980081;28;20421;-83
2023/09/11 12:50:43;;;;;;;18.37;4.57;;;;;;;;;;4981946;28;20422;-83
2023/09/11 12:53:10;;;;;;;17.97;4.10;;;;;;;;;;4983664;28;20421;-80
2023/09/11 12:55:37;;;;;;;19.40;4.60;;;;;;;;;;4982539;28;20789;-80
2023/09/11 12:58:03;;;;;;;18.55;4.40;;;;;;;;;;4989046;28;20534;-82
2023/09/11 13:00:33;;;;;;;18.35;4.65;;;;;;;;;;4990331;28;20885;-81
2023/09/11 13:03:01;;;;;;;20.88;4.78;;;;;;;;;;4987894;28;20465;-82
2023/09/11 13:05:28;;;;;;;19.95;5.07;;;;;;;;;;4991124;28;21011;-83
2023/09/11 13:07:55;;;;;;;19.60;4.60;;;;;;;;;;4987798;28;20413;-83
2023/09/11 13:10:22;;;;;;;19.17;4.63;;;;;;;;;;4991196;28;20831;-83
2023/09/11 13:12:48;;;;;;;21.00;4.30;;;;;;;;;;4975244;28;20945;-83
2023/09/11 13:15:15;;;;;;;20.73;4.70;;;;;;;;;;4985926;28;20484;-83
2023/09/11 13:17:44;;;;;;;20.13;4.40;;;;;;;;;;4984037;28;20410;-81
2023/09/11 13:20:11;;;;;;;19.30;4.28;;;;;;;;;;4984575;28;20410;-82
2023/09/11 13:22:37;;;;;;;18.20;4.28;;;;;;;;;;4990315;28;20451;-82
2023/09/11 13:25:04;;;;;;;21.95;4.90;;;;;;;;;;4980878;28;20485;-83
2023/09/11 13:27:31;;;;;;;19.10;4.57;;;;;;;;;;4985548;28;20903;-83
2023/09/11 13:30:00;;;;;;;19.90;5.00;;;;;;;;;;4987238;28;20416;-83
2023/09/11 13:32:27;;;;;;;19.92;4.40;;;;;;;;;;4989653;28;20428;-81
2023/09/11 13:34:56;;;;;;;18.20;4.60;;;;;;;;;;4985667;28;20424;-84
2023/09/11 13:37:23;;;;;;;19.33;4.37;;;;;;;;;;5015943;28;20509;-85
2023/09/11 13:39:49;;;;;;;19.92;5.40;;;;;;;;;;4987536;28;20406;-83
2023/09/11 13:42:23;;;;;;;17.75;4.20;;;;;;;;;;4987958;28;20480;-84
2023/09/11 13:44:51;;;;;;;17.83;4.65;;;;;;;;;;5015248;28;20820;-85
2023/09/11 13:47:18;;;;;;;21.08;4.80;;;;;;;;;;4988255;28;20411;-84
2023/09/11 13:49:45;;;;;;;18.90;4.40;;;;;;;;;;4981974;28;20891;-84
2023/09/11 13:52:14;;;;;;;20.50;4.50;;;;;;;;;;5012990;28;20426;-80
2023/09/11 13:54:44;;;;;;;20.35;4.50;;;;;;;;;;4988367;28;20875;-85
2023/09/11 13:57:11;;;;;;;19.50;4.70;;;;;;;;;;4984891;28;20494;-82
2023/09/11 13:59:37;;;;;;;18.20;4.50;;;;;;;;;;4981027;28;20410;-83
2023/09/11 14:02:04;;;;;;;20.90;5.10;;;;;;;;;;4988716;28;20482;-82
2023/09/11 14:04:31;;;;;;;18.60;4.50;;;;;;;;;;4981030;28;20416;-83
2023/09/11 14:06:58;;;;;;;19.30;4.40;;;;;;;;;;4990792;28;20428;-82
2023/09/11 14:09:26;;;;;;;20.35;4.40;;;;;;;;;;4986921;28;20418;-82
2023/09/11 14:11:54;;;;;;;18.20;4.40;;;;;;;;;;4986528;28;20444;-82
2023/09/11 14:14:20;;;;;;;18.02;4.50;;;;;;;;;;4984476;28;20427;-81
2023/09/11 14:16:47;;;;;;;19.60;5.20;;;;;;;;;;4991654;28;20931;-82
2023/09/11 14:19:14;;;;;;;19.52;4.57;;;;;;;;;;4988793;28;20422;-83
2023/09/11 14:21:41;;;;;;;18.40;3.90;;;;;;;;;;5007100;28;20411;-82
2023/09/11 14:24:08;;;;;;;20.17;4.50;;;;;;;;;;4989962;28;20503;-83
2023/09/11 14:26:37;;;;;;;18.63;4.07;;;;;;;;;;4981052;28;20420;-82
2023/09/11 14:29:04;;;;;;;18.20;4.00;;;;;;;;;;4989925;28;20455;-83
2023/09/11 14:31:31;;;;;;;17.80;4.00;;;;;;;;;;4982825;28;20430;-83
2023/09/11 14:33:58;;;;;;;17.50;4.25;;;;;;;;;;4983690;28;20411;-84